Allenville, Illinois
Current Conditions -  °F | °C
As of 1:53 AM on Friday 19 Dec 2014 (Local Time) from KMTO Reporting Station
Overcast Overcast  
Wind Chill: 21°   Ceiling: 1500
Heat Index: 26°   Visibility: 9mi
Dew Point: 21°   Wind: 5mph
Humidity: 81%   Direction: 350°N
Pressure: 30.27"   Gusts: NA
Location:  39.5872°N, 88.5835°W
Report Text: KMTO 190753Z AUTO 35004KT 9SM OVC015 M03/M06 A3027 RMK AO2 SLP259 T10331061
Loading
Personal Weather Stations






























Interactive Weather Map New forecast layout! Learn more

10-Day Weather Forecast

Advertisements
Track Severe Weather on mobile